Atomic City, Idaho
Current Conditions -  °F | °C
As of 11:53 PM on Thursday 30 Oct 2014 (Local Time) from KIDA Reporting Station
Haze Haze  
Wind Chill: 37°   Ceiling: Unl
Heat Index: 40°   Visibility: 6mi
Dew Point: 31°   Wind: 5mph
Humidity: 70%   Direction: 300°WNW
Pressure: 30.1"   Gusts: NA
Location:  43.44°N, 112.81°W
Report Text: KIDA 310553Z 30004KT 6SM HZ CLR 04/M01 A3010 RMK AO2 SLP182 T00441006 10150 20044 56012
Loading
Personal Weather Stations






























Interactive Weather Map
Tropical Storm Tracking
New forecast layout! Learn more

10-Day Weather Forecast

Advertisements
Track Severe Weather on mobile